Terminal Aerodrome Forecast
Issued by NWS Milwaukee/Sullivan, WI

Home | Current Version | Previous Version | Text Only | Print | Product List | Glossary On
Versions: 1 2 3 4 5 6 7 8 9 10 11 12 13 14 15 16 17 18 19 20 21 22 23 24 25 26 27 28 29 30
000
FTUS43 KMKX 171758 RRA
TAFMKE
TAF
KMKE 171758Z 1718/1824 08006KT 3SM BR OVC006
     FM172000 08005KT 4SM BR OVC006
     FM172300 VRB03KT 5SM BR OVC006
     FM180600 VRB03KT 3SM -DZ BR OVC005
     FM181000 VRB04KT 3SM BR OVC006
     FM181200 26005KT 4SM BR OVC008
     FM181500 25006KT P6SM OVC010
     FM182000 23010KT P6SM SCT025=

USA.gov is the U.S. government's official web portal to all federal, state and local government web resources and services.